sensor_id;sensor_type;location;lat;lon;timestamp;temperature;humidity
28530;DHT22;15737;49.760;6.632;2023-02-28T00:02:15;-0.10;73.80
28530;DHT22;15737;49.760;6.632;2023-02-28T00:04:43;-0.20;73.70
28530;DHT22;15737;49.760;6.632;2023-02-28T00:07:08;-0.20;74.00
28530;DHT22;15737;49.760;6.632;2023-02-28T00:09:34;-0.20;74.20
28530;DHT22;15737;49.760;6.632;2023-02-28T00:12:00;-0.10;74.10
28530;DHT22;15737;49.760;6.632;2023-02-28T00:14:30;-0.20;73.90
28530;DHT22;15737;49.760;6.632;2023-02-28T00:16:55;-0.20;74.30
28530;DHT22;15737;49.760;6.632;2023-02-28T00:19:21;-0.30;74.60
28530;DHT22;15737;49.760;6.632;2023-02-28T00:21:46;-0.30;74.70
28530;DHT22;15737;49.760;6.632;2023-02-28T00:24:11;-0.30;74.90
28530;DHT22;15737;49.760;6.632;2023-02-28T00:26:37;-0.30;75.20
28530;DHT22;15737;49.760;6.632;2023-02-28T00:29:02;-0.30;75.40
28530;DHT22;15737;49.760;6.632;2023-02-28T00:31:28;-0.30;75.80
28530;DHT22;15737;49.760;6.632;2023-02-28T00:33:53;-0.30;75.90
28530;DHT22;15737;49.760;6.632;2023-02-28T00:36:19;-0.30;75.90
28530;DHT22;15737;49.760;6.632;2023-02-28T00:38:44;-0.30;76.00
28530;DHT22;15737;49.760;6.632;2023-02-28T00:41:10;-0.40;76.20
28530;DHT22;15737;49.760;6.632;2023-02-28T00:43:37;-0.40;76.60
28530;DHT22;15737;49.760;6.632;2023-02-28T00:46:04;-0.50;76.80
28530;DHT22;15737;49.760;6.632;2023-02-28T00:48:30;-0.50;77.00
28530;DHT22;15737;49.760;6.632;2023-02-28T00:50:55;-0.50;77.30
28530;DHT22;15737;49.760;6.632;2023-02-28T00:53:21;-0.40;77.00
28530;DHT22;15737;49.760;6.632;2023-02-28T00:55:48;-0.40;77.00
28530;DHT22;15737;49.760;6.632;2023-02-28T00:58:13;-0.40;77.20
28530;DHT22;15737;49.760;6.632;2023-02-28T01:00:39;-0.50;77.30
28530;DHT22;15737;49.760;6.632;2023-02-28T01:03:04;-0.50;77.60
28530;DHT22;15737;49.760;6.632;2023-02-28T01:05:30;-0.40;77.70
28530;DHT22;15737;49.760;6.632;2023-02-28T01:07:55;-0.40;77.90
28530;DHT22;15737;49.760;6.632;2023-02-28T01:10:21;-0.40;78.00
28530;DHT22;15737;49.760;6.632;2023-02-28T01:12:46;-0.50;78.10
28530;DHT22;15737;49.760;6.632;2023-02-28T01:15:12;-0.60;78.30
28530;DHT22;15737;49.760;6.632;2023-02-28T01:17:37;-0.70;78.50
28530;DHT22;15737;49.760;6.632;2023-02-28T01:20:03;-0.60;78.80
28530;DHT22;15737;49.760;6.632;2023-02-28T01:22:29;-0.60;79.20
28530;DHT22;15737;49.760;6.632;2023-02-28T01:24:55;-0.70;79.40
28530;DHT22;15737;49.760;6.632;2023-02-28T01:27:20;-0.70;79.70
28530;DHT22;15737;49.760;6.632;2023-02-28T01:29:46;-0.70;80.10
28530;DHT22;15737;49.760;6.632;2023-02-28T01:32:12;-0.70;80.20
28530;DHT22;15737;49.760;6.632;2023-02-28T01:34:37;-0.80;80.50
28530;DHT22;15737;49.760;6.632;2023-02-28T01:37:03;-0.80;81.00
28530;DHT22;15737;49.760;6.632;2023-02-28T01:39:29;-0.80;81.00
28530;DHT22;15737;49.760;6.632;2023-02-28T01:41:54;-0.70;81.20
28530;DHT22;15737;49.760;6.632;2023-02-28T01:44:59;-0.70;81.40
28530;DHT22;15737;49.760;6.632;2023-02-28T01:47:38;-0.70;81.50
28530;DHT22;15737;49.760;6.632;2023-02-28T01:50:09;-0.70;82.00
28530;DHT22;15737;49.760;6.632;2023-02-28T01:52:36;-0.80;82.00
28530;DHT22;15737;49.760;6.632;2023-02-28T01:55:04;-0.80;82.20
28530;DHT22;15737;49.760;6.632;2023-02-28T01:57:35;-0.80;82.20
28530;DHT22;15737;49.760;6.632;2023-02-28T02:00:09;-0.80;82.40
28530;DHT22;15737;49.760;6.632;2023-02-28T02:02:36;-0.80;82.60
28530;DHT22;15737;49.760;6.632;2023-02-28T02:05:09;-0.80;83.00
28530;DHT22;15737;49.760;6.632;2023-02-28T02:07:37;-0.80;83.20
28530;DHT22;15737;49.760;6.632;2023-02-28T02:10:10;-0.80;83.30
28530;DHT22;15737;49.760;6.632;2023-02-28T02:15:26;-0.90;83.80
28530;DHT22;15737;49.760;6.632;2023-02-28T02:17:58;-0.80;84.30
28530;DHT22;15737;49.760;6.632;2023-02-28T02:20:42;-0.80;84.20
28530;DHT22;15737;49.760;6.632;2023-02-28T02:23:58;-0.90;84.50
28530;DHT22;15737;49.760;6.632;2023-02-28T02:26:34;-0.90;84.70
28530;DHT22;15737;49.760;6.632;2023-02-28T02:40:29;-0.90;85.60
28530;DHT22;15737;49.760;6.632;2023-02-28T02:43:14;-0.90;86.10
28530;DHT22;15737;49.760;6.632;2023-02-28T02:45:47;-1.00;86.30
28530;DHT22;15737;49.760;6.632;2023-02-28T02:48:17;-1.00;86.40
28530;DHT22;15737;49.760;6.632;2023-02-28T02:50:59;-1.00;86.70
28530;DHT22;15737;49.760;6.632;2023-02-28T02:53:33;-1.00;86.70
28530;DHT22;15737;49.760;6.632;2023-02-28T02:56:01;-1.00;86.80
28530;DHT22;15737;49.760;6.632;2023-02-28T02:58:33;-1.00;87.00
28530;DHT22;15737;49.760;6.632;2023-02-28T03:01:02;-1.00;87.10
28530;DHT22;15737;49.760;6.632;2023-02-28T03:03:29;-1.00;87.20
28530;DHT22;15737;49.760;6.632;2023-02-28T03:06:00;-1.10;87.10
28530;DHT22;15737;49.760;6.632;2023-02-28T03:08:28;-1.10;87.30
28530;DHT22;15737;49.760;6.632;2023-02-28T03:10:59;-1.10;87.50
28530;DHT22;15737;49.760;6.632;2023-02-28T03:16:53;-1.20;87.70
28530;DHT22;15737;49.760;6.632;2023-02-28T03:22:40;-1.40;88.40
28530;DHT22;15737;49.760;6.632;2023-02-28T03:28:00;-1.40;88.90
28530;DHT22;15737;49.760;6.632;2023-02-28T03:33:25;-1.30;89.20
28530;DHT22;15737;49.760;6.632;2023-02-28T03:35:55;-1.40;89.50
28530;DHT22;15737;49.760;6.632;2023-02-28T03:38:58;-1.40;90.00
28530;DHT22;15737;49.760;6.632;2023-02-28T03:41:32;-1.40;90.00
28530;DHT22;15737;49.760;6.632;2023-02-28T03:44:07;-1.40;90.30
28530;DHT22;15737;49.760;6.632;2023-02-28T03:46:38;-1.40;90.30
28530;DHT22;15737;49.760;6.632;2023-02-28T03:49:18;-1.40;90.40
28530;DHT22;15737;49.760;6.632;2023-02-28T03:51:46;-1.30;90.50
28530;DHT22;15737;49.760;6.632;2023-02-28T03:54:16;-1.30;90.60
28530;DHT22;15737;49.760;6.632;2023-02-28T03:56:50;-1.30;90.60
28530;DHT22;15737;49.760;6.632;2023-02-28T03:59:34;-1.30;90.60
28530;DHT22;15737;49.760;6.632;2023-02-28T04:02:01;-1.40;90.60
28530;DHT22;15737;49.760;6.632;2023-02-28T04:04:28;-1.40;90.70
28530;DHT22;15737;49.760;6.632;2023-02-28T04:07:02;-1.40;91.00
28530;DHT22;15737;49.760;6.632;2023-02-28T04:09:28;-1.40;91.20
28530;DHT22;15737;49.760;6.632;2023-02-28T04:11:53;-1.40;91.30
28530;DHT22;15737;49.760;6.632;2023-02-28T04:14:21;-1.40;91.50
28530;DHT22;15737;49.760;6.632;2023-02-28T04:16:47;-1.40;91.70
28530;DHT22;15737;49.760;6.632;2023-02-28T04:19:13;-1.40;91.90
28530;DHT22;15737;49.760;6.632;2023-02-28T04:21:45;-1.40;92.30
28530;DHT22;15737;49.760;6.632;2023-02-28T04:24:16;-1.40;92.40
28530;DHT22;15737;49.760;6.632;2023-02-28T04:26:44;-1.40;92.70
28530;DHT22;15737;49.760;6.632;2023-02-28T04:29:11;-1.40;92.90
28530;DHT22;15737;49.760;6.632;2023-02-28T04:31:37;-1.40;93.00
28530;DHT22;15737;49.760;6.632;2023-02-28T04:34:03;-1.40;93.20
28530;DHT22;15737;49.760;6.632;2023-02-28T04:36:29;-1.40;93.40
28530;DHT22;15737;49.760;6.632;2023-02-28T04:38:54;-1.40;93.60
28530;DHT22;15737;49.760;6.632;2023-02-28T04:41:21;-1.40;93.80
28530;DHT22;15737;49.760;6.632;2023-02-28T04:43:47;-1.40;93.80
28530;DHT22;15737;49.760;6.632;2023-02-28T04:46:12;-1.50;94.10
28530;DHT22;15737;49.760;6.632;2023-02-28T04:48:39;-1.50;94.40
28530;DHT22;15737;49.760;6.632;2023-02-28T04:51:11;-1.50;94.70
28530;DHT22;15737;49.760;6.632;2023-02-28T04:53:38;-1.50;95.10
28530;DHT22;15737;49.760;6.632;2023-02-28T04:56:05;-1.50;95.30
28530;DHT22;15737;49.760;6.632;2023-02-28T04:58:31;-1.50;95.70
28530;DHT22;15737;49.760;6.632;2023-02-28T05:01:16;-1.50;95.80
28530;DHT22;15737;49.760;6.632;2023-02-28T05:03:43;-1.50;96.10
28530;DHT22;15737;49.760;6.632;2023-02-28T05:06:10;-1.60;96.40
28530;DHT22;15737;49.760;6.632;2023-02-28T05:08:36;-1.60;96.60
28530;DHT22;15737;49.760;6.632;2023-02-28T05:11:05;-1.50;96.80
28530;DHT22;15737;49.760;6.632;2023-02-28T05:13:31;-1.60;96.80
28530;DHT22;15737;49.760;6.632;2023-02-28T05:15:56;-1.50;96.90
28530;DHT22;15737;49.760;6.632;2023-02-28T05:18:22;-1.50;96.90
28530;DHT22;15737;49.760;6.632;2023-02-28T05:20:47;-1.60;97.30
28530;DHT22;15737;49.760;6.632;2023-02-28T05:23:14;-1.50;97.30
28530;DHT22;15737;49.760;6.632;2023-02-28T05:25:40;-1.60;97.40
28530;DHT22;15737;49.760;6.632;2023-02-28T05:28:06;-1.70;97.60
28530;DHT22;15737;49.760;6.632;2023-02-28T05:30:31;-1.70;97.80
28530;DHT22;15737;49.760;6.632;2023-02-28T05:32:58;-1.70;98.00
28530;DHT22;15737;49.760;6.632;2023-02-28T05:35:24;-1.70;98.20
28530;DHT22;15737;49.760;6.632;2023-02-28T05:37:49;-1.70;98.40
28530;DHT22;15737;49.760;6.632;2023-02-28T05:40:15;-1.70;98.70
28530;DHT22;15737;49.760;6.632;2023-02-28T05:42:41;-1.70;98.90
28530;DHT22;15737;49.760;6.632;2023-02-28T05:45:08;-1.70;99.10
28530;DHT22;15737;49.760;6.632;2023-02-28T05:47:34;-1.70;99.30
28530;DHT22;15737;49.760;6.632;2023-02-28T05:49:59;-1.80;99.60
28530;DHT22;15737;49.760;6.632;2023-02-28T05:52:26;-1.70;99.80
28530;DHT22;15737;49.760;6.632;2023-02-28T05:54:51;-1.80;99.80
28530;DHT22;15737;49.760;6.632;2023-02-28T05:57:17;-1.80;99.90
28530;DHT22;15737;49.760;6.632;2023-02-28T05:59:43;-1.70;99.90
28530;DHT22;15737;49.760;6.632;2023-02-28T06:02:13;-1.80;99.90
28530;DHT22;15737;49.760;6.632;2023-02-28T06:04:39;-1.80;99.90
28530;DHT22;15737;49.760;6.632;2023-02-28T06:07:06;-1.80;99.90
28530;DHT22;15737;49.760;6.632;2023-02-28T06:09:32;-1.80;99.90
28530;DHT22;15737;49.760;6.632;2023-02-28T06:12:02;-1.80;99.90
28530;DHT22;15737;49.760;6.632;2023-02-28T06:14:29;-1.80;99.90
28530;DHT22;15737;49.760;6.632;2023-02-28T06:16:56;-1.80;99.90
28530;DHT22;15737;49.760;6.632;2023-02-28T06:19:22;-1.80;99.90
28530;DHT22;15737;49.760;6.632;2023-02-28T06:21:51;-1.80;99.90
28530;DHT22;15737;49.760;6.632;2023-02-28T06:24:18;-1.80;99.90
28530;DHT22;15737;49.760;6.632;2023-02-28T06:26:47;-1.80;99.90
28530;DHT22;15737;49.760;6.632;2023-02-28T06:29:18;-1.70;99.90
28530;DHT22;15737;49.760;6.632;2023-02-28T06:31:46;-1.70;99.90
28530;DHT22;15737;49.760;6.632;2023-02-28T06:34:13;-1.70;99.90
28530;DHT22;15737;49.760;6.632;2023-02-28T06:36:40;-1.60;99.90
28530;DHT22;15737;49.760;6.632;2023-02-28T06:39:06;-1.60;99.90
28530;DHT22;15737;49.760;6.632;2023-02-28T06:41:31;-1.20;99.90
28530;DHT22;15737;49.760;6.632;2023-02-28T06:43:57;-0.20;99.90
28530;DHT22;15737;49.760;6.632;2023-02-28T06:46:23;1.30;99.90
28530;DHT22;15737;49.760;6.632;2023-02-28T06:48:49;2.60;97.10
28530;DHT22;15737;49.760;6.632;2023-02-28T06:51:17;3.30;95.10
28530;DHT22;15737;49.760;6.632;2023-02-28T06:53:44;3.90;93.90
28530;DHT22;15737;49.760;6.632;2023-02-28T06:56:12;4.60;92.40
28530;DHT22;15737;49.760;6.632;2023-02-28T06:58:38;5.30;91.40
28530;DHT22;15737;49.760;6.632;2023-02-28T07:01:05;6.50;89.10
28530;DHT22;15737;49.760;6.632;2023-02-28T07:03:31;7.10;85.40
28530;DHT22;15737;49.760;6.632;2023-02-28T07:05:56;7.50;83.40
28530;DHT22;15737;49.760;6.632;2023-02-28T07:08:23;7.90;80.80
28530;DHT22;15737;49.760;6.632;2023-02-28T07:10:53;8.10;80.00
28530;DHT22;15737;49.760;6.632;2023-02-28T07:13:18;8.50;78.30
28530;DHT22;15737;49.760;6.632;2023-02-28T07:15:44;8.70;76.40
28530;DHT22;15737;49.760;6.632;2023-02-28T07:18:09;9.00;75.10
28530;DHT22;15737;49.760;6.632;2023-02-28T07:20:35;9.20;73.90
28530;DHT22;15737;49.760;6.632;2023-02-28T07:23:01;9.40;72.80
28530;DHT22;15737;49.760;6.632;2023-02-28T07:25:28;10.10;70.00
28530;DHT22;15737;49.760;6.632;2023-02-28T07:27:55;11.10;68.10
28530;DHT22;15737;49.760;6.632;2023-02-28T07:30:21;11.90;65.40
28530;DHT22;15737;49.760;6.632;2023-02-28T07:32:47;12.10;63.20
28530;DHT22;15737;49.760;6.632;2023-02-28T07:35:12;11.90;62.00
28530;DHT22;15737;49.760;6.632;2023-02-28T07:37:41;11.90;62.50
28530;DHT22;15737;49.760;6.632;2023-02-28T07:40:09;12.90;59.90
28530;DHT22;15737;49.760;6.632;2023-02-28T07:42:37;12.70;59.10
28530;DHT22;15737;49.760;6.632;2023-02-28T07:45:03;12.20;59.40
28530;DHT22;15737;49.760;6.632;2023-02-28T07:47:30;13.30;58.50
28530;DHT22;15737;49.760;6.632;2023-02-28T07:49:56;14.40;56.40
28530;DHT22;15737;49.760;6.632;2023-02-28T07:52:21;14.40;55.50
28530;DHT22;15737;49.760;6.632;2023-02-28T07:54:49;14.50;54.90
28530;DHT22;15737;49.760;6.632;2023-02-28T07:57:14;14.70;54.80
28530;DHT22;15737;49.760;6.632;2023-02-28T07:59:40;15.10;54.10
28530;DHT22;15737;49.760;6.632;2023-02-28T08:02:05;15.80;53.00
28530;DHT22;15737;49.760;6.632;2023-02-28T08:04:34;16.80;50.50
28530;DHT22;15737;49.760;6.632;2023-02-28T08:07:00;15.70;50.60
28530;DHT22;15737;49.760;6.632;2023-02-28T08:09:26;15.50;50.90
28530;DHT22;15737;49.760;6.632;2023-02-28T08:11:51;16.00;50.20
28530;DHT22;15737;49.760;6.632;2023-02-28T08:14:38;15.70;50.00
28530;DHT22;15737;49.760;6.632;2023-02-28T08:17:05;16.50;49.00
28530;DHT22;15737;49.760;6.632;2023-02-28T08:21:58;16.60;48.10
28530;DHT22;15737;49.760;6.632;2023-02-28T08:24:23;16.60;47.60
28530;DHT22;15737;49.760;6.632;2023-02-28T08:26:49;16.00;48.00
28530;DHT22;15737;49.760;6.632;2023-02-28T08:29:38;16.50;48.30
28530;DHT22;15737;49.760;6.632;2023-02-28T08:32:05;16.50;47.20
28530;DHT22;15737;49.760;6.632;2023-02-28T08:34:32;17.20;46.40
28530;DHT22;15737;49.760;6.632;2023-02-28T08:36:58;16.90;45.50
28530;DHT22;15737;49.760;6.632;2023-02-28T08:39:23;16.10;45.90
28530;DHT22;15737;49.760;6.632;2023-02-28T08:41:49;16.50;46.20
28530;DHT22;15737;49.760;6.632;2023-02-28T08:44:28;16.10;45.50
28530;DHT22;15737;49.760;6.632;2023-02-28T08:46:54;16.00;45.30
28530;DHT22;15737;49.760;6.632;2023-02-28T08:49:19;15.60;45.60
28530;DHT22;15737;49.760;6.632;2023-02-28T08:51:47;15.60;46.40
28530;DHT22;15737;49.760;6.632;2023-02-28T08:54:13;16.10;45.70
28530;DHT22;15737;49.760;6.632;2023-02-28T08:56:41;16.30;45.30
28530;DHT22;15737;49.760;6.632;2023-02-28T08:59:26;15.90;44.90
28530;DHT22;15737;49.760;6.632;2023-02-28T09:01:52;13.70;47.30
28530;DHT22;15737;49.760;6.632;2023-02-28T09:04:17;14.60;47.00
28530;DHT22;15737;49.760;6.632;2023-02-28T09:06:43;15.50;45.50
28530;DHT22;15737;49.760;6.632;2023-02-28T09:09:09;15.20;46.00
28530;DHT22;15737;49.760;6.632;2023-02-28T09:11:35;13.60;46.40
28530;DHT22;15737;49.760;6.632;2023-02-28T09:14:01;11.20;48.90
28530;DHT22;15737;49.760;6.632;2023-02-28T09:16:29;9.20;52.70
28530;DHT22;15737;49.760;6.632;2023-02-28T09:18:54;7.80;54.70
28530;DHT22;15737;49.760;6.632;2023-02-28T09:21:20;6.70;56.40
28530;DHT22;15737;49.760;6.632;2023-02-28T09:23:48;6.00;58.10
28530;DHT22;15737;49.760;6.632;2023-02-28T09:26:25;5.60;58.90
28530;DHT22;15737;49.760;6.632;2023-02-28T09:28:52;5.50;59.60
28530;DHT22;15737;49.760;6.632;2023-02-28T09:31:23;5.40;59.50
28530;DHT22;15737;49.760;6.632;2023-02-28T09:33:50;5.40;59.40
28530;DHT22;15737;49.760;6.632;2023-02-28T09:36:16;5.60;59.20
28530;DHT22;15737;49.760;6.632;2023-02-28T09:38:42;5.80;58.90
28530;DHT22;15737;49.760;6.632;2023-02-28T09:41:36;6.00;58.80
28530;DHT22;15737;49.760;6.632;2023-02-28T09:44:16;5.90;58.60
28530;DHT22;15737;49.760;6.632;2023-02-28T09:46:48;5.90;58.50
28530;DHT22;15737;49.760;6.632;2023-02-28T09:49:18;6.20;58.50
28530;DHT22;15737;49.760;6.632;2023-02-28T09:51:55;6.60;57.70
28530;DHT22;15737;49.760;6.632;2023-02-28T09:54:24;6.70;57.60
28530;DHT22;15737;49.760;6.632;2023-02-28T10:04:51;6.60;57.60
28530;DHT22;15737;49.760;6.632;2023-02-28T10:08:02;6.40;57.20
28530;DHT22;15737;49.760;6.632;2023-02-28T10:13:12;6.30;57.50
28530;DHT22;15737;49.760;6.632;2023-02-28T10:15:40;6.30;57.20
28530;DHT22;15737;49.760;6.632;2023-02-28T10:18:12;6.90;57.00
28530;DHT22;15737;49.760;6.632;2023-02-28T10:20:40;8.20;55.20
28530;DHT22;15737;49.760;6.632;2023-02-28T10:23:25;9.00;54.60
28530;DHT22;15737;49.760;6.632;2023-02-28T10:28:32;10.90;50.60
28530;DHT22;15737;49.760;6.632;2023-02-28T10:30:58;11.60;50.20
28530;DHT22;15737;49.760;6.632;2023-02-28T10:33:28;11.10;49.70
28530;DHT22;15737;49.760;6.632;2023-02-28T10:35:54;10.80;50.90
28530;DHT22;15737;49.760;6.632;2023-02-28T10:38:32;11.30;51.00
28530;DHT22;15737;49.760;6.632;2023-02-28T10:41:07;12.20;49.50
28530;DHT22;15737;49.760;6.632;2023-02-28T10:43:34;12.20;48.80
28530;DHT22;15737;49.760;6.632;2023-02-28T10:48:37;12.50;48.80
28530;DHT22;15737;49.760;6.632;2023-02-28T10:51:04;11.70;48.60
28530;DHT22;15737;49.760;6.632;2023-02-28T11:07:03;12.80;48.70
28530;DHT22;15737;49.760;6.632;2023-02-28T11:09:34;12.00;48.80
28530;DHT22;15737;49.760;6.632;2023-02-28T11:12:02;11.60;49.10
28530;DHT22;15737;49.760;6.632;2023-02-28T11:14:32;11.40;49.80
28530;DHT22;15737;49.760;6.632;2023-02-28T11:17:13;11.60;49.50
28530;DHT22;15737;49.760;6.632;2023-02-28T11:20:01;10.80;49.60
28530;DHT22;15737;49.760;6.632;2023-02-28T11:22:31;9.90;51.10
28530;DHT22;15737;49.760;6.632;2023-02-28T11:25:01;9.70;51.90
28530;DHT22;15737;49.760;6.632;2023-02-28T11:29:56;10.80;49.50
28530;DHT22;15737;49.760;6.632;2023-02-28T11:32:24;9.80;49.50
28530;DHT22;15737;49.760;6.632;2023-02-28T11:37:35;8.30;51.90
28530;DHT22;15737;49.760;6.632;2023-02-28T11:40:01;7.60;51.10
28530;DHT22;15737;49.760;6.632;2023-02-28T11:45:45;6.70;52.30
28530;DHT22;15737;49.760;6.632;2023-02-28T11:48:27;6.20;52.40
28530;DHT22;15737;49.760;6.632;2023-02-28T11:51:06;5.90;52.50
28530;DHT22;15737;49.760;6.632;2023-02-28T11:56:39;6.10;53.40
28530;DHT22;15737;49.760;6.632;2023-02-28T11:59:28;6.40;53.00
28530;DHT22;15737;49.760;6.632;2023-02-28T12:02:24;6.40;52.90
28530;DHT22;15737;49.760;6.632;2023-02-28T12:07:47;7.00;52.90
28530;DHT22;15737;49.760;6.632;2023-02-28T12:13:48;7.30;52.80
28530;DHT22;15737;49.760;6.632;2023-02-28T12:22:31;7.20;52.70
28530;DHT22;15737;49.760;6.632;2023-02-28T12:25:23;7.50;52.30
28530;DHT22;15737;49.760;6.632;2023-02-28T12:27:52;7.50;52.00
28530;DHT22;15737;49.760;6.632;2023-02-28T12:30:29;7.00;51.90
28530;DHT22;15737;49.760;6.632;2023-02-28T12:33:03;6.80;52.60
28530;DHT22;15737;49.760;6.632;2023-02-28T12:35:37;7.60;52.70
28530;DHT22;15737;49.760;6.632;2023-02-28T12:38:17;8.50;52.30
28530;DHT22;15737;49.760;6.632;2023-02-28T12:41:00;9.50;51.20
28530;DHT22;15737;49.760;6.632;2023-02-28T12:43:33;9.90;50.10
28530;DHT22;15737;49.760;6.632;2023-02-28T12:46:10;10.00;48.70
28530;DHT22;15737;49.760;6.632;2023-02-28T12:51:01;9.80;50.40
28530;DHT22;15737;49.760;6.632;2023-02-28T12:53:54;10.80;49.60
28530;DHT22;15737;49.760;6.632;2023-02-28T12:56:39;12.00;49.30
28530;DHT22;15737;49.760;6.632;2023-02-28T12:59:22;13.00;47.10
28530;DHT22;15737;49.760;6.632;2023-02-28T13:04:34;13.00;45.50
28530;DHT22;15737;49.760;6.632;2023-02-28T13:07:47;12.40;46.10
28530;DHT22;15737;49.760;6.632;2023-02-28T13:10:37;12.10;46.30
28530;DHT22;15737;49.760;6.632;2023-02-28T13:13:03;11.40;46.50
28530;DHT22;15737;49.760;6.632;2023-02-28T13:15:29;11.20;46.80
28530;DHT22;15737;49.760;6.632;2023-02-28T13:17:57;11.30;47.00
28530;DHT22;15737;49.760;6.632;2023-02-28T13:20:25;11.00;45.60
28530;DHT22;15737;49.760;6.632;2023-02-28T13:22:53;10.70;46.10
28530;DHT22;15737;49.760;6.632;2023-02-28T13:27:52;11.00;46.80
28530;DHT22;15737;49.760;6.632;2023-02-28T13:35:45;9.70;48.10
28530;DHT22;15737;49.760;6.632;2023-02-28T13:38:32;10.00;47.60
28530;DHT22;15737;49.760;6.632;2023-02-28T13:44:11;8.90;48.20
28530;DHT22;15737;49.760;6.632;2023-02-28T13:52:12;9.70;48.30
28530;DHT22;15737;49.760;6.632;2023-02-28T13:57:42;9.50;47.90
28530;DHT22;15737;49.760;6.632;2023-02-28T14:05:46;9.90;46.70
28530;DHT22;15737;49.760;6.632;2023-02-28T14:08:18;9.30;46.70
28530;DHT22;15737;49.760;6.632;2023-02-28T14:10:48;9.10;47.70
28530;DHT22;15737;49.760;6.632;2023-02-28T14:13:43;9.60;48.10
28530;DHT22;15737;49.760;6.632;2023-02-28T14:16:17;10.30;47.30
28530;DHT22;15737;49.760;6.632;2023-02-28T14:18:58;10.50;46.80
28530;DHT22;15737;49.760;6.632;2023-02-28T14:22:00;10.10;46.70
28530;DHT22;15737;49.760;6.632;2023-02-28T14:24:39;9.40;48.10
28530;DHT22;15737;49.760;6.632;2023-02-28T14:27:29;9.40;48.60
28530;DHT22;15737;49.760;6.632;2023-02-28T14:33:14;10.20;47.90
28530;DHT22;15737;49.760;6.632;2023-02-28T14:38:51;9.60;47.90
28530;DHT22;15737;49.760;6.632;2023-02-28T14:41:22;9.50;48.40
28530;DHT22;15737;49.760;6.632;2023-02-28T14:43:56;9.20;48.60
28530;DHT22;15737;49.760;6.632;2023-02-28T14:46:28;9.10;48.40
28530;DHT22;15737;49.760;6.632;2023-02-28T14:48:55;8.80;48.50
28530;DHT22;15737;49.760;6.632;2023-02-28T14:51:22;8.90;49.10
28530;DHT22;15737;49.760;6.632;2023-02-28T14:53:51;9.30;49.00
28530;DHT22;15737;49.760;6.632;2023-02-28T14:56:38;9.50;48.40
28530;DHT22;15737;49.760;6.632;2023-02-28T14:59:05;9.20;48.70
28530;DHT22;15737;49.760;6.632;2023-02-28T15:01:31;8.90;48.80
28530;DHT22;15737;49.760;6.632;2023-02-28T15:04:05;8.70;48.90
28530;DHT22;15737;49.760;6.632;2023-02-28T15:06:32;8.40;50.00
28530;DHT22;15737;49.760;6.632;2023-02-28T15:09:09;8.30;49.90
28530;DHT22;15737;49.760;6.632;2023-02-28T15:11:35;8.40;50.10
28530;DHT22;15737;49.760;6.632;2023-02-28T15:14:02;8.40;50.30
28530;DHT22;15737;49.760;6.632;2023-02-28T15:16:39;8.60;50.00
28530;DHT22;15737;49.760;6.632;2023-02-28T15:21:44;8.80;50.10
28530;DHT22;15737;49.760;6.632;2023-02-28T15:24:19;8.50;49.90
28530;DHT22;15737;49.760;6.632;2023-02-28T15:26:53;8.40;50.30
28530;DHT22;15737;49.760;6.632;2023-02-28T15:29:23;8.00;50.10
28530;DHT22;15737;49.760;6.632;2023-02-28T15:32:16;8.00;50.80
28530;DHT22;15737;49.760;6.632;2023-02-28T15:34:45;8.40;51.10
28530;DHT22;15737;49.760;6.632;2023-02-28T15:39:56;9.10;50.80
28530;DHT22;15737;49.760;6.632;2023-02-28T15:42:29;9.30;50.60
28530;DHT22;15737;49.760;6.632;2023-02-28T15:44:55;9.50;50.60
28530;DHT22;15737;49.760;6.632;2023-02-28T15:47:26;9.80;50.40
28530;DHT22;15737;49.760;6.632;2023-02-28T15:49:56;9.30;49.90
28530;DHT22;15737;49.760;6.632;2023-02-28T15:52:37;8.60;50.70
28530;DHT22;15737;49.760;6.632;2023-02-28T15:55:20;8.30;51.30
28530;DHT22;15737;49.760;6.632;2023-02-28T15:57:49;8.20;51.60
28530;DHT22;15737;49.760;6.632;2023-02-28T16:00:20;8.00;51.70
28530;DHT22;15737;49.760;6.632;2023-02-28T16:02:46;7.70;51.80
28530;DHT22;15737;49.760;6.632;2023-02-28T16:07:39;7.30;52.20
28530;DHT22;15737;49.760;6.632;2023-02-28T16:10:06;7.20;52.50
28530;DHT22;15737;49.760;6.632;2023-02-28T16:12:37;7.30;52.60
28530;DHT22;15737;49.760;6.632;2023-02-28T16:15:08;7.50;52.50
28530;DHT22;15737;49.760;6.632;2023-02-28T16:17:38;7.50;52.40
28530;DHT22;15737;49.760;6.632;2023-02-28T16:22:39;7.20;52.40
28530;DHT22;15737;49.760;6.632;2023-02-28T16:25:04;6.80;52.70
28530;DHT22;15737;49.760;6.632;2023-02-28T16:27:36;6.40;52.80
28530;DHT22;15737;49.760;6.632;2023-02-28T16:30:04;6.20;53.60
28530;DHT22;15737;49.760;6.632;2023-02-28T16:32:31;6.10;53.70
28530;DHT22;15737;49.760;6.632;2023-02-28T16:34:57;6.10;53.80
28530;DHT22;15737;49.760;6.632;2023-02-28T16:37:26;5.90;53.90
28530;DHT22;15737;49.760;6.632;2023-02-28T16:39:51;5.80;54.10
28530;DHT22;15737;49.760;6.632;2023-02-28T16:42:24;5.70;54.40
28530;DHT22;15737;49.760;6.632;2023-02-28T16:44:51;5.60;54.50
28530;DHT22;15737;49.760;6.632;2023-02-28T16:47:17;5.40;54.80
28530;DHT22;15737;49.760;6.632;2023-02-28T16:49:42;5.30;55.00
28530;DHT22;15737;49.760;6.632;2023-02-28T16:52:09;5.20;55.20
28530;DHT22;15737;49.760;6.632;2023-02-28T16:54:35;5.10;55.30
28530;DHT22;15737;49.760;6.632;2023-02-28T16:57:01;4.90;55.50
28530;DHT22;15737;49.760;6.632;2023-02-28T16:59:27;4.60;55.60
28530;DHT22;15737;49.760;6.632;2023-02-28T17:01:55;4.50;56.00
28530;DHT22;15737;49.760;6.632;2023-02-28T17:04:23;4.40;56.20
28530;DHT22;15737;49.760;6.632;2023-02-28T17:06:49;4.30;56.30
28530;DHT22;15737;49.760;6.632;2023-02-28T17:09:18;4.20;56.50
28530;DHT22;15737;49.760;6.632;2023-02-28T17:11:45;4.10;56.70
28530;DHT22;15737;49.760;6.632;2023-02-28T17:14:10;4.00;57.00
28530;DHT22;15737;49.760;6.632;2023-02-28T17:16:37;3.90;56.90
28530;DHT22;15737;49.760;6.632;2023-02-28T17:19:06;3.90;57.30
28530;DHT22;15737;49.760;6.632;2023-02-28T17:21:33;3.80;57.40
28530;DHT22;15737;49.760;6.632;2023-02-28T17:23:59;3.70;57.60
28530;DHT22;15737;49.760;6.632;2023-02-28T17:26:25;3.60;58.00
28530;DHT22;15737;49.760;6.632;2023-02-28T17:28:52;3.60;58.20
28530;DHT22;15737;49.760;6.632;2023-02-28T17:31:19;3.50;58.40
28530;DHT22;15737;49.760;6.632;2023-02-28T17:33:44;3.40;58.50
28530;DHT22;15737;49.760;6.632;2023-02-28T17:36:14;3.40;58.60
28530;DHT22;15737;49.760;6.632;2023-02-28T17:38:40;3.30;58.60
28530;DHT22;15737;49.760;6.632;2023-02-28T17:41:06;3.30;58.80
28530;DHT22;15737;49.760;6.632;2023-02-28T17:43:31;3.20;59.00
28530;DHT22;15737;49.760;6.632;2023-02-28T17:45:57;3.20;59.00
28530;DHT22;15737;49.760;6.632;2023-02-28T17:48:24;3.10;59.10
28530;DHT22;15737;49.760;6.632;2023-02-28T17:50:49;3.10;59.20
28530;DHT22;15737;49.760;6.632;2023-02-28T17:53:15;3.00;59.40
28530;DHT22;15737;49.760;6.632;2023-02-28T17:55:40;3.00;59.70
28530;DHT22;15737;49.760;6.632;2023-02-28T17:58:08;3.00;59.70
28530;DHT22;15737;49.760;6.632;2023-02-28T18:00:34;3.00;59.90
28530;DHT22;15737;49.760;6.632;2023-02-28T18:03:00;3.00;60.10
28530;DHT22;15737;49.760;6.632;2023-02-28T18:05:25;2.90;60.30